Time;durP1;ratioP1;P1;durP2;ratioP2;P2;SDS_P1;SDS_P2;PMS_P1;PMS_P2;Temp;Humidity;BMP_temperature;BMP_pressure;BME280_temperature;BME280_humidity;BME280_pressure;Samples;Min_cycle;Max_cycle;Signal;HPM_P1;HPM_P2
2021/12/22 00:01:36;;;;;;;25.65;15.40;;;-0.40;99.90;;;;;;5034194;28;20375;-76
2021/12/22 00:04:03;;;;;;;22.35;14.05;;;-0.40;99.90;;;;;;5034080;28;20052;-76
2021/12/22 00:06:32;;;;;;;23.17;15.70;;;-0.50;99.90;;;;;;5034121;28;20052;-76
2021/12/22 00:08:58;;;;;;;23.33;15.15;;;-0.50;99.90;;;;;;5016215;28;20060;-76
2021/12/22 00:11:24;;;;;;;24.17;13.35;;;-0.50;99.90;;;;;;5034061;28;20045;-77
2021/12/22 00:13:51;;;;;;;28.23;15.27;;;-0.50;99.90;;;;;;5033719;28;20080;-76
2021/12/22 00:16:16;;;;;;;24.85;15.07;;;-0.50;99.90;;;;;;5016188;28;20069;-76
2021/12/22 00:18:43;;;;;;;20.33;14.27;;;-0.50;99.90;;;;;;5015879;28;20555;-75
2021/12/22 00:21:10;;;;;;;24.35;14.45;;;-0.50;99.90;;;;;;5016272;28;20052;-76
2021/12/22 00:23:36;;;;;;;24.58;14.88;;;-0.50;99.90;;;;;;5033685;28;20060;-76
2021/12/22 00:26:03;;;;;;;27.05;15.77;;;;;;;;;;5033391;28;20095;-75
2021/12/22 00:28:29;;;;;;;19.88;13.85;;;;;;;;;;5033641;28;20042;-76
2021/12/22 00:30:56;;;;;;;21.83;13.20;;;;;;;;;;5015325;28;20387;-76
2021/12/22 00:33:22;;;;;;;23.98;13.45;;;;;;;;;;5033753;28;20049;-76
2021/12/22 00:35:48;;;;;;;20.17;12.57;;;;;;;;;;5015682;28;20472;-75
2021/12/22 00:38:18;;;;;;;19.77;12.38;;;;;;;;;;5033344;28;20041;-76
2021/12/22 00:40:45;;;;;;;22.38;13.10;;;;;;;;;;5033195;28;20528;-76
2021/12/22 00:43:11;;;;;;;22.75;13.68;;;;;;;;;;5033341;28;20049;-76
2021/12/22 00:45:38;;;;;;;27.42;13.15;;;;;;;;;;5033327;28;20103;-76
2021/12/22 00:48:05;;;;;;;19.70;12.85;;;;;;;;;;5033024;28;20053;-76
2021/12/22 00:50:33;;;;;;;20.83;13.10;;;;;;;;;;5033430;28;20053;-76
2021/12/22 00:52:59;;;;;;;19.65;12.55;;;;;;;;;;5015218;28;20092;-76
2021/12/22 00:55:25;;;;;;;20.63;13.98;;;;;;;;;;5015537;28;20552;-75
2021/12/22 00:57:52;;;;;;;20.20;12.73;;;;;;;;;;5032840;28;20045;-75
2021/12/22 01:00:19;;;;;;;23.25;13.98;;;;;;;;;;5033092;28;20425;-76
2021/12/22 01:02:45;;;;;;;23.02;13.80;;;;;;;;;;5032746;28;20050;-75
2021/12/22 01:05:16;;;;;;;23.25;13.65;;;;;;;;;;5033342;28;20067;-75
2021/12/22 01:07:46;;;;;;;24.40;12.27;;;;;;;;;;5032797;28;20049;-76
2021/12/22 01:10:13;;;;;;;25.80;13.23;;;-0.70;99.90;;;;;;5032687;28;20080;-76
2021/12/22 01:12:39;;;;;;;18.98;13.23;;;-0.60;99.90;;;;;;5015437;28;20082;-75
2021/12/22 01:15:08;;;;;;;21.13;13.30;;;-0.70;99.90;;;;;;5032597;28;20114;-76
2021/12/22 01:17:41;;;;;;;16.88;11.63;;;-0.70;99.90;;;;;;5032963;28;20049;-76
2021/12/22 01:20:26;;;;;;;19.25;12.23;;;-0.70;99.90;;;;;;5032186;28;20435;-76
2021/12/22 01:23:01;;;;;;;25.60;12.98;;;-0.60;99.90;;;;;;5032540;28;20053;-75
2021/12/22 01:25:27;;;;;;;;;;;-0.70;99.90;;;;;;5015639;28;20057;-76
2021/12/22 01:27:52;;;;;;;19.30;12.17;;;-0.60;99.90;;;;;;5032539;28;20380;-75
2021/12/22 01:30:28;;;;;;;18.67;12.77;;;-0.70;99.90;;;;;;5015599;28;20099;-76
2021/12/22 01:32:57;;;;;;;20.15;12.45;;;-0.70;99.90;;;;;;5032379;28;20053;-75
2021/12/22 01:35:28;;;;;;;17.13;10.75;;;-0.70;99.90;;;;;;5032918;28;20045;-76
2021/12/22 01:37:55;;;;;;;21.35;12.68;;;-0.80;99.90;;;;;;5032421;28;20041;-76
2021/12/22 01:40:21;;;;;;;21.35;12.45;;;-0.70;99.90;;;;;;5032581;28;20056;-76
2021/12/22 01:42:49;;;;;;;18.88;12.50;;;-0.70;99.90;;;;;;5032579;28;20052;-75
2021/12/22 01:51:51;;;;;;;20.17;11.73;;;-0.90;99.90;;;;;;5015268;28;20054;-76
2021/12/22 01:54:20;;;;;;;21.08;11.48;;;-0.90;99.90;;;;;;5032542;28;20055;-75
2021/12/22 01:56:48;;;;;;;17.60;11.65;;;-0.90;99.90;;;;;;5032458;28;20128;-76
2021/12/22 01:59:14;;;;;;;22.45;13.23;;;-0.90;99.90;;;;;;5032074;28;20069;-76
2021/12/22 02:01:40;;;;;;;20.98;12.73;;;-0.90;99.90;;;;;;5032399;28;20129;-76
2021/12/22 02:04:10;;;;;;;20.83;12.87;;;-1.00;99.90;;;;;;5032095;28;20132;-76
2021/12/22 02:06:38;;;;;;;23.88;13.35;;;-1.00;99.90;;;;;;5014998;28;20273;-76
2021/12/22 02:09:04;;;;;;;19.83;12.80;;;-1.00;99.90;;;;;;5031989;28;20052;-75
2021/12/22 02:11:30;;;;;;;18.70;11.43;;;-1.00;99.90;;;;;;5014720;28;20053;-76
2021/12/22 02:14:02;;;;;;;19.70;12.53;;;-1.00;99.90;;;;;;5031951;28;20053;-76
2021/12/22 02:16:32;;;;;;;21.23;11.68;;;-1.00;99.90;;;;;;5032488;28;20042;-76
2021/12/22 02:18:59;;;;;;;18.08;12.38;;;-1.00;99.90;;;;;;5031855;28;20041;-75
2021/12/22 02:21:29;;;;;;;16.30;11.25;;;-1.00;99.90;;;;;;5035921;28;20049;-76
2021/12/22 02:23:55;;;;;;;18.33;11.98;;;-1.00;99.90;;;;;;5035831;28;20132;-75
2021/12/22 02:26:30;;;;;;;20.00;11.57;;;-1.00;99.90;;;;;;5018382;28;20589;-76
2021/12/22 02:29:00;;;;;;;15.82;11.07;;;-1.00;99.90;;;;;;5035523;28;20498;-75
2021/12/22 02:31:27;;;;;;;16.95;11.38;;;-1.10;99.90;;;;;;5018523;28;20084;-76
2021/12/22 02:33:53;;;;;;;20.65;11.88;;;-1.10;99.90;;;;;;5035754;28;20046;-76
2021/12/22 02:36:23;;;;;;;19.17;11.07;;;-1.10;99.90;;;;;;5035589;28;20053;-76
2021/12/22 02:38:56;;;;;;;19.73;12.13;;;-1.10;99.90;;;;;;5018485;28;20120;-76
2021/12/22 02:41:27;;;;;;;17.45;12.35;;;-1.10;99.90;;;;;;5017989;28;20045;-75
2021/12/22 02:43:55;;;;;;;17.10;10.63;;;-1.10;99.90;;;;;;5035621;28;20060;-75
2021/12/22 02:46:27;;;;;;;19.20;11.05;;;-1.10;99.90;;;;;;5035249;28;20503;-76
2021/12/22 02:48:54;;;;;;;16.60;10.93;;;-1.10;99.90;;;;;;5035591;28;20128;-76
2021/12/22 02:51:21;;;;;;;17.45;10.65;;;-1.10;99.90;;;;;;5035120;28;20150;-76
2021/12/22 02:54:01;;;;;;;19.17;11.32;;;-1.10;99.90;;;;;;5035363;28;20148;-76
2021/12/22 03:04:27;;;;;;;18.55;11.68;;;-1.20;99.90;;;;;;5035007;28;20275;-75
2021/12/22 03:07:08;;;;;;;18.20;10.68;;;-1.20;99.90;;;;;;5035278;28;20049;-76
2021/12/22 03:09:37;;;;;;;20.15;12.25;;;-1.10;99.90;;;;;;5035154;28;20045;-75
2021/12/22 03:12:06;;;;;;;16.58;11.00;;;-1.00;99.90;;;;;;5034725;28;20049;-75
2021/12/22 03:14:32;;;;;;;22.42;11.52;;;-1.10;99.90;;;;;;5035045;28;20041;-75
2021/12/22 03:16:59;;;;;;;21.05;11.30;;;-1.00;99.90;;;;;;5017516;28;20335;-75
2021/12/22 03:19:28;;;;;;;18.90;11.90;;;-1.10;99.90;;;;;;5017107;28;20049;-75
2021/12/22 03:22:00;;;;;;;19.40;11.02;;;-1.10;99.90;;;;;;5034906;28;20119;-75
2021/12/22 03:24:27;;;;;;;18.38;10.95;;;-1.00;99.90;;;;;;5035146;28;20049;-75
2021/12/22 03:26:54;;;;;;;16.33;10.43;;;-1.00;99.90;;;;;;5034857;28;20055;-76
2021/12/22 03:29:19;;;;;;;19.30;10.73;;;-1.20;99.90;;;;;;5034454;28;20049;-75
2021/12/22 03:31:46;;;;;;;16.70;10.00;;;;;;;;;;5016614;28;20053;-76
2021/12/22 03:34:14;;;;;;;22.10;11.68;;;-1.30;99.90;;;;;;5034353;28;20050;-76
2021/12/22 03:36:42;;;;;;;18.98;11.10;;;-1.40;99.90;;;;;;5034809;28;20045;-76
2021/12/22 03:39:08;;;;;;;18.67;11.52;;;-1.40;99.90;;;;;;5016550;28;20055;-76
2021/12/22 03:41:37;;;;;;;22.08;11.57;;;-1.30;99.90;;;;;;5034763;28;20115;-76
2021/12/22 03:44:06;;;;;;;20.58;11.05;;;-1.40;99.90;;;;;;5034385;28;20045;-74
2021/12/22 03:46:33;;;;;;;18.02;11.90;;;-1.40;99.90;;;;;;5034475;28;20092;-76
2021/12/22 03:48:58;;;;;;;20.60;11.52;;;-1.40;99.90;;;;;;5034352;28;20624;-76
2021/12/22 03:51:26;;;;;;;18.73;11.53;;;-1.40;99.90;;;;;;5034048;28;20070;-76
2021/12/22 03:53:51;;;;;;;18.85;11.38;;;-1.40;99.90;;;;;;5016874;28;20502;-76
2021/12/22 03:56:17;;;;;;;19.27;11.83;;;-1.40;99.90;;;;;;5016141;28;20064;-75
2021/12/22 03:58:43;;;;;;;20.33;11.53;;;-1.40;99.90;;;;;;5034205;28;20041;-75
2021/12/22 04:01:09;;;;;;;19.57;11.13;;;-1.40;99.90;;;;;;5033791;28;20045;-75
2021/12/22 04:03:36;;;;;;;17.00;10.73;;;-1.40;99.90;;;;;;5016415;28;20095;-75
2021/12/22 04:06:03;;;;;;;17.15;11.77;;;-1.40;99.90;;;;;;5033700;28;20045;-76
2021/12/22 04:08:29;;;;;;;17.02;11.43;;;-1.40;99.90;;;;;;5033797;28;20430;-75
2021/12/22 04:10:55;;;;;;;19.63;11.50;;;-1.40;99.90;;;;;;5033965;28;20120;-76
2021/12/22 04:13:21;;;;;;;19.60;11.40;;;-1.50;99.90;;;;;;5016061;28;20060;-75
2021/12/22 04:15:47;;;;;;;17.87;12.47;;;-1.50;99.90;;;;;;5016607;28;20049;-75
2021/12/22 04:18:15;;;;;;;20.00;11.98;;;-1.50;99.90;;;;;;5033459;28;20053;-75
2021/12/22 04:20:41;;;;;;;19.88;12.55;;;-1.60;99.90;;;;;;5033856;28;20394;-75
2021/12/22 04:23:07;;;;;;;21.67;12.37;;;-1.60;99.90;;;;;;5016328;28;20053;-76
2021/12/22 04:25:34;;;;;;;17.35;11.80;;;-1.60;99.90;;;;;;5033652;28;20478;-75
2021/12/22 04:28:06;;;;;;;20.40;12.30;;;-1.70;99.90;;;;;;5033721;28;20053;-75
2021/12/22 04:30:34;;;;;;;21.80;12.35;;;-1.60;99.90;;;;;;5033117;28;20068;-75
2021/12/22 04:33:01;;;;;;;19.35;13.02;;;-1.70;99.90;;;;;;5033720;28;20088;-75
2021/12/22 04:35:27;;;;;;;24.17;14.10;;;-1.80;99.90;;;;;;5033205;28;20057;-75
2021/12/22 04:37:52;;;;;;;25.58;14.20;;;-1.80;99.90;;;;;;5033153;28;20079;-76
2021/12/22 04:40:18;;;;;;;19.67;12.80;;;;;;;;;;5032982;28;20081;-75
2021/12/22 04:42:45;;;;;;;19.95;12.77;;;;;;;;;;5033044;28;20406;-75
2021/12/22 04:45:12;;;;;;;22.00;12.73;;;;;;;;;;5015169;28;20127;-74
2021/12/22 04:47:38;;;;;;;21.50;13.38;;;;;;;;;;5033337;28;20420;-75
2021/12/22 04:50:10;;;;;;;23.02;13.77;;;;;;;;;;5033144;28;20045;-75
2021/12/22 04:52:44;;;;;;;20.77;13.82;;;;;;;;;;5015670;28;20080;-75
2021/12/22 04:55:11;;;;;;;18.75;12.25;;;;;;;;;;5015918;28;20160;-75
2021/12/22 04:57:37;;;;;;;18.42;12.48;;;;;;;;;;5032601;28;20504;-75
2021/12/22 05:00:05;;;;;;;22.27;13.35;;;;;;;;;;5032709;28;20481;-75
2021/12/22 05:02:31;;;;;;;21.63;13.52;;;;;;;;;;5032765;28;20052;-75
2021/12/22 05:04:58;;;;;;;22.67;13.85;;;;;;;;;;5033181;28;20068;-75
2021/12/22 05:07:24;;;;;;;22.33;13.25;;;;;;;;;;5032694;28;20049;-75
2021/12/22 05:09:50;;;;;;;24.40;13.75;;;;;;;;;;5033152;28;20413;-75
2021/12/22 05:12:16;;;;;;;22.65;13.38;;;;;;;;;;5032574;28;20148;-74
2021/12/22 05:14:47;;;;;;;21.35;12.93;;;;;;;;;;5032956;28;20397;-75
2021/12/22 05:17:20;;;;;;;18.52;12.88;;;;;;;;;;5032920;28;20103;-76
2021/12/22 05:19:46;;;;;;;21.33;12.73;;;;;;;;;;5015448;28;20424;-75
2021/12/22 05:22:12;;;;;;;21.65;12.77;;;;;;;;;;5032916;28;20053;-75
2021/12/22 05:24:38;;;;;;;22.65;13.30;;;;;;;;;;5032445;28;20052;-75
2021/12/22 05:27:07;;;;;;;23.20;14.05;;;-1.70;99.90;;;;;;5032812;28;20041;-75
2021/12/22 05:29:33;;;;;;;23.33;14.38;;;-1.80;99.90;;;;;;5032397;28;20497;-75
2021/12/22 05:32:01;;;;;;;22.15;13.68;;;-1.80;99.90;;;;;;5032792;28;20445;-75
2021/12/22 05:34:26;;;;;;;21.77;13.70;;;-1.90;99.90;;;;;;5032321;28;20060;-75
2021/12/22 05:36:52;;;;;;;21.10;13.80;;;-1.90;99.90;;;;;;5032859;28;20045;-75
2021/12/22 05:39:18;;;;;;;23.77;13.93;;;-1.90;99.90;;;;;;5032214;28;20041;-75
2021/12/22 05:41:44;;;;;;;21.87;13.13;;;-2.00;99.90;;;;;;5032914;28;20099;-75
2021/12/22 05:44:09;;;;;;;21.37;12.97;;;-2.00;99.90;;;;;;5032619;28;20280;-75
2021/12/22 05:46:35;;;;;;;20.97;13.57;;;-1.90;99.90;;;;;;5014953;28;20056;-75
2021/12/22 05:49:01;;;;;;;22.13;13.77;;;-1.80;99.90;;;;;;5032515;28;20045;-75
2021/12/22 05:51:28;;;;;;;19.93;13.30;;;-1.80;99.90;;;;;;5032202;28;20132;-75
2021/12/22 05:53:53;;;;;;;25.25;14.20;;;-1.80;99.90;;;;;;5032487;28;20128;-75
2021/12/22 05:56:19;;;;;;;19.37;13.07;;;-1.80;99.90;;;;;;5036123;28;20136;-73
2021/12/22 05:58:45;;;;;;;22.83;14.83;;;-1.90;99.90;;;;;;5036364;28;20367;-75
2021/12/22 06:01:11;;;;;;;21.40;13.97;;;-1.90;99.90;;;;;;5036409;28;20057;-75
2021/12/22 06:03:37;;;;;;;20.60;13.60;;;-1.90;99.90;;;;;;5018634;28;20053;-75
2021/12/22 06:06:03;;;;;;;21.73;13.93;;;-1.90;99.90;;;;;;5036200;28;20132;-75
2021/12/22 06:08:28;;;;;;;20.00;13.88;;;-1.90;99.90;;;;;;5035996;28;20037;-75
2021/12/22 06:10:54;;;;;;;20.93;13.43;;;-1.90;99.90;;;;;;5036532;28;20537;-75
2021/12/22 06:13:20;;;;;;;21.77;13.83;;;-1.90;99.90;;;;;;5018436;28;20045;-75
2021/12/22 06:15:46;;;;;;;20.85;13.82;;;-1.90;99.90;;;;;;5036020;28;20046;-75
2021/12/22 06:18:12;;;;;;;23.80;14.90;;;-2.00;99.90;;;;;;5036063;28;20543;-75
2021/12/22 06:20:38;;;;;;;22.23;14.02;;;-1.90;99.90;;;;;;5035641;28;20049;-75
2021/12/22 06:23:04;;;;;;;22.03;14.37;;;-1.90;99.90;;;;;;5018659;28;20102;-75
2021/12/22 06:25:30;;;;;;;20.15;13.70;;;-1.90;99.90;;;;;;5017869;28;20409;-75
2021/12/22 06:27:55;;;;;;;21.13;14.30;;;-1.90;99.90;;;;;;5035940;28;20045;-75
2021/12/22 06:30:22;;;;;;;22.70;14.13;;;-1.80;99.90;;;;;;5035921;28;20556;-75
2021/12/22 06:32:49;;;;;;;22.17;13.95;;;-1.90;99.90;;;;;;5017936;28;20053;-75
2021/12/22 06:35:15;;;;;;;22.15;14.52;;;-1.90;99.90;;;;;;5018151;28;20092;-75
2021/12/22 06:37:43;;;;;;;20.77;13.82;;;-1.90;99.90;;;;;;5035442;28;20041;-75
2021/12/22 06:40:10;;;;;;;22.45;14.77;;;-2.00;99.90;;;;;;5001865;28;20053;-75
2021/12/22 06:42:38;;;;;;;23.00;14.30;;;-2.00;99.90;;;;;;5035362;28;20049;-75
2021/12/22 06:45:06;;;;;;;22.10;12.75;;;-2.00;99.90;;;;;;5035855;28;20366;-75
2021/12/22 06:47:32;;;;;;;23.52;13.35;;;-2.00;99.90;;;;;;5035380;28;20128;-75
2021/12/22 06:49:57;;;;;;;20.73;14.13;;;-2.00;99.90;;;;;;5035468;28;20137;-75
2021/12/22 06:52:23;;;;;;;22.63;14.60;;;-2.00;99.90;;;;;;5035553;28;20045;-75
2021/12/22 06:54:49;;;;;;;22.60;14.43;;;-2.00;99.90;;;;;;5017467;28;20048;-75
2021/12/22 06:57:19;;;;;;;21.60;13.97;;;-2.00;99.90;;;;;;5035303;28;20136;-75
2021/12/22 06:59:44;;;;;;;24.90;14.25;;;-2.00;99.90;;;;;;5034973;28;20049;-75
2021/12/22 07:02:10;;;;;;;23.93;15.20;;;;;;;;;;5035467;28;20114;-75
2021/12/22 07:04:36;;;;;;;25.55;15.73;;;-2.10;99.90;;;;;;5034951;28;20151;-75
2021/12/22 07:07:02;;;;;;;22.77;14.50;;;-2.10;99.90;;;;;;5034649;28;20485;-75
2021/12/22 07:09:28;;;;;;;23.07;14.40;;;-2.10;99.90;;;;;;5017605;28;20038;-74
2021/12/22 07:11:53;;;;;;;23.03;14.37;;;-2.10;99.90;;;;;;5035204;28;20049;-75
2021/12/22 07:14:19;;;;;;;24.77;14.77;;;-2.10;99.90;;;;;;5035073;28;20041;-76
2021/12/22 07:16:47;;;;;;;22.73;14.23;;;-2.20;99.90;;;;;;5034825;28;20623;-76
2021/12/22 07:19:13;;;;;;;24.13;14.98;;;-2.20;99.90;;;;;;5035062;28;20106;-76
2021/12/22 07:21:39;;;;;;;27.17;14.75;;;-2.30;99.90;;;;;;5034693;28;20580;-77
2021/12/22 07:24:06;;;;;;;24.30;13.83;;;-2.20;99.90;;;;;;5035182;28;20183;-77
2021/12/22 07:26:32;;;;;;;22.23;13.88;;;-2.20;99.90;;;;;;5034611;28;20053;-78
2021/12/22 07:28:58;;;;;;;21.52;13.45;;;-2.20;99.90;;;;;;5034785;28;20041;-77
2021/12/22 07:31:24;;;;;;;23.58;14.25;;;-2.20;99.90;;;;;;5034650;28;20054;-77
2021/12/22 07:34:16;;;;;;;25.10;14.63;;;-2.20;99.90;;;;;;5034136;28;20055;-76
2021/12/22 07:36:49;;;;;;;22.65;14.63;;;-2.20;99.90;;;;;;5015962;28;20061;-77
2021/12/22 07:39:15;;;;;;;21.17;13.52;;;-2.20;99.90;;;;;;5034618;28;20041;-77
2021/12/22 07:41:41;;;;;;;22.40;13.63;;;-2.10;99.90;;;;;;5034259;28;20127;-76
2021/12/22 07:44:06;;;;;;;24.33;14.03;;;-2.10;99.90;;;;;;5034726;28;20437;-75
2021/12/22 07:46:33;;;;;;;22.37;14.77;;;-2.20;99.90;;;;;;5034028;28;20088;-73
2021/12/22 07:48:58;;;;;;;26.40;14.52;;;-2.10;99.90;;;;;;5016740;28;20085;-75
2021/12/22 07:51:24;;;;;;;22.53;13.43;;;-2.10;99.90;;;;;;5034397;28;20489;-76
2021/12/22 07:53:50;;;;;;;26.70;14.97;;;-2.10;99.90;;;;;;5034034;28;20051;-85
2021/12/22 07:56:15;;;;;;;23.50;14.00;;;-2.10;99.90;;;;;;5034375;28;20132;-76
2021/12/22 07:58:41;;;;;;;26.73;14.43;;;-2.10;99.90;;;;;;5033963;28;20414;-75
2021/12/22 08:01:07;;;;;;;25.70;15.23;;;-2.00;99.90;;;;;;5016462;28;20049;-76
2021/12/22 08:03:33;;;;;;;26.00;14.30;;;-2.10;99.90;;;;;;5000394;28;20124;-79
2021/12/22 08:05:58;;;;;;;25.97;14.70;;;-2.10;99.90;;;;;;5034077;28;20049;-78
2021/12/22 08:08:24;;;;;;;26.93;14.87;;;-2.00;99.90;;;;;;5034176;28;20041;-80
2021/12/22 08:10:50;;;;;;;22.30;13.37;;;-2.00;99.90;;;;;;5033598;28;20506;-76
2021/12/22 08:13:16;;;;;;;29.83;15.00;;;-2.00;99.90;;;;;;5016213;28;20430;-77
2021/12/22 08:15:43;;;;;;;23.08;13.98;;;-2.00;99.90;;;;;;5033512;28;20255;-76
2021/12/22 08:18:09;;;;;;;22.75;13.05;;;-2.00;99.90;;;;;;5033682;28;20052;-76
2021/12/22 08:20:35;;;;;;;22.27;14.07;;;-1.90;99.90;;;;;;5033930;28;20389;-76
2021/12/22 08:23:01;;;;;;;23.40;14.03;;;-1.90;99.90;;;;;;5033644;28;20637;-76
2021/12/22 08:25:27;;;;;;;26.47;14.63;;;-1.80;99.90;;;;;;5034019;28;20085;-76
2021/12/22 08:27:52;;;;;;;23.48;14.15;;;-1.80;99.90;;;;;;5033658;28;20126;-76
2021/12/22 08:30:19;;;;;;;21.93;13.73;;;-1.90;99.90;;;;;;5033952;28;20034;-76
2021/12/22 08:32:45;;;;;;;24.65;12.95;;;-1.80;99.90;;;;;;5033625;28;20060;-76
2021/12/22 08:35:13;;;;;;;24.07;13.23;;;-1.70;99.90;;;;;;5033429;28;20045;-77
2021/12/22 08:40:24;;;;;;;23.92;14.23;;;-1.70;99.90;;;;;;5033686;28;20045;-77
2021/12/22 08:42:51;;;;;;;23.27;13.07;;;-1.60;99.90;;;;;;5033385;28;20041;-76
2021/12/22 08:45:17;;;;;;;24.17;12.90;;;-1.60;99.90;;;;;;5033527;28;20063;-77
2021/12/22 08:47:44;;;;;;;24.88;14.60;;;-1.50;99.90;;;;;;4999440;28;20046;-76
2021/12/22 08:50:12;;;;;;;27.48;14.05;;;-1.40;99.90;;;;;;5033510;28;20085;-76
2021/12/22 08:52:39;;;;;;;25.48;14.80;;;-1.40;99.90;;;;;;5033465;28;20057;-76
2021/12/22 08:55:05;;;;;;;28.30;14.35;;;-1.30;99.90;;;;;;5033240;28;20049;-76
2021/12/22 08:57:31;;;;;;;24.60;14.55;;;-1.30;99.90;;;;;;5033290;28;20397;-77
2021/12/22 08:59:58;;;;;;;28.90;14.77;;;-1.30;99.90;;;;;;5032996;28;20045;-76
2021/12/22 09:02:25;;;;;;;26.05;15.32;;;-1.40;99.90;;;;;;5033475;28;20284;-77
2021/12/22 09:04:51;;;;;;;26.65;14.75;;;-1.30;99.90;;;;;;5032985;28;20041;-76
2021/12/22 09:07:16;;;;;;;25.00;14.30;;;-1.30;99.90;;;;;;5016117;28;20061;-76
2021/12/22 09:09:44;;;;;;;28.30;14.87;;;-1.40;99.90;;;;;;5033112;28;20037;-76
2021/12/22 09:12:10;;;;;;;26.52;14.93;;;-1.40;99.90;;;;;;5033488;28;20060;-76
2021/12/22 09:14:35;;;;;;;23.48;14.10;;;-1.30;99.90;;;;;;5033073;28;20053;-76
2021/12/22 09:17:02;;;;;;;26.57;14.50;;;-1.30;99.90;;;;;;5032962;28;20099;-75
2021/12/22 09:19:28;;;;;;;29.02;14.02;;;-1.30;99.90;;;;;;5032558;28;20041;-77
2021/12/22 09:21:53;;;;;;;26.00;14.70;;;-1.30;99.90;;;;;;5032544;28;20051;-76
2021/12/22 09:24:19;;;;;;;27.90;15.17;;;-1.30;99.90;;;;;;5015444;28;20056;-77
2021/12/22 09:26:46;;;;;;;26.33;14.77;;;-1.30;99.90;;;;;;5032598;28;20068;-78
2021/12/22 09:29:12;;;;;;;23.95;14.88;;;-1.30;99.90;;;;;;5032454;28;20042;-77
2021/12/22 09:31:38;;;;;;;23.00;14.35;;;-1.20;99.90;;;;;;5033004;28;20436;-77
2021/12/22 09:34:06;;;;;;;24.35;14.35;;;-1.20;99.90;;;;;;5032622;28;20458;-76
2021/12/22 09:36:31;;;;;;;24.42;15.23;;;-1.20;99.90;;;;;;5032846;28;20057;-75
2021/12/22 09:38:58;;;;;;;28.57;14.57;;;-1.20;99.90;;;;;;5032318;28;20042;-76
2021/12/22 09:41:23;;;;;;;27.35;14.75;;;-1.20;99.90;;;;;;5032921;28;20529;-76
2021/12/22 09:43:52;;;;;;;24.37;14.53;;;-1.10;99.90;;;;;;5032615;28;20132;-76
2021/12/22 09:46:21;;;;;;;27.40;14.25;;;-1.10;99.90;;;;;;5032766;28;20054;-75
2021/12/22 09:49:36;;;;;;;23.50;14.23;;;-1.00;99.90;;;;;;4999207;28;20102;-75
2021/12/22 09:54:24;;;;;;;26.75;15.73;;;-0.90;99.90;;;;;;5017789;28;20091;-73
2021/12/22 09:56:50;;;;;;;25.83;15.50;;;;;;;;;;5014577;28;20057;-80
2021/12/22 09:59:16;;;;;;;24.63;14.68;;;-0.90;99.90;;;;;;5032472;28;20045;-75
2021/12/22 10:01:42;;;;;;;25.77;13.93;;;-0.80;99.90;;;;;;5014830;28;20498;-74
2021/12/22 10:04:09;;;;;;;23.40;14.37;;;-0.80;99.90;;;;;;5031803;28;20096;-74
2021/12/22 10:06:35;;;;;;;25.48;15.02;;;;;;;;;;5015065;28;20441;-74
2021/12/22 10:09:05;;;;;;;25.73;15.38;;;-0.80;99.90;;;;;;5032186;28;20046;-74
2021/12/22 10:11:33;;;;;;;24.13;14.07;;;-0.80;99.90;;;;;;5032462;28;20102;-75
2021/12/22 10:13:59;;;;;;;24.70;14.85;;;-0.70;99.90;;;;;;5014398;28;20543;-75
2021/12/22 10:16:27;;;;;;;24.23;14.90;;;-0.70;99.90;;;;;;5032396;28;20134;-74
2021/12/22 10:19:08;;;;;;;24.63;14.85;;;-0.70;99.90;;;;;;5032002;28;20033;-75
2021/12/22 10:21:36;;;;;;;28.48;15.00;;;-0.60;99.90;;;;;;5032618;28;20064;-75
2021/12/22 10:24:05;;;;;;;27.60;15.13;;;-0.70;99.90;;;;;;5031968;28;20072;-75
2021/12/22 10:26:31;;;;;;;24.15;13.68;;;-0.60;99.90;;;;;;5032312;28;20045;-75
2021/12/22 10:29:06;;;;;;;23.37;14.07;;;-0.60;99.90;;;;;;5032037;28;20389;-76
2021/12/22 10:31:45;;;;;;;24.85;15.38;;;-0.60;99.90;;;;;;5032493;28;20383;-76
2021/12/22 10:34:14;;;;;;;24.70;15.25;;;-0.60;99.90;;;;;;5031628;28;20485;-76
2021/12/22 10:36:44;;;;;;;29.90;15.80;;;-0.60;99.90;;;;;;5032260;28;20042;-75
2021/12/22 10:39:27;;;;;;;24.13;15.10;;;-0.50;99.90;;;;;;5031788;28;20068;-74
2021/12/22 10:42:00;;;;;;;25.35;15.18;;;-0.50;99.90;;;;;;5033405;28;20050;-75
2021/12/22 10:44:33;;;;;;;24.65;14.55;;;-0.50;99.90;;;;;;5035966;28;20095;-76
2021/12/22 10:47:34;;;;;;;27.60;16.08;;;-0.40;99.90;;;;;;5035437;28;20049;-76
2021/12/22 10:50:06;;;;;;;27.00;16.25;;;-0.40;99.90;;;;;;5017794;28;20057;-78
2021/12/22 10:52:32;;;;;;;27.13;14.73;;;-0.30;99.90;;;;;;5035446;28;20096;-77
2021/12/22 10:55:11;;;;;;;22.08;14.15;;;-0.30;99.90;;;;;;5035382;28;20118;-78
2021/12/22 10:57:38;;;;;;;22.48;14.35;;;-0.30;99.90;;;;;;5035428;28;20057;-77
2021/12/22 11:00:24;;;;;;;24.48;15.50;;;-0.30;99.90;;;;;;5035029;28;20426;-76
2021/12/22 11:03:06;;;;;;;25.20;14.55;;;-0.30;99.90;;;;;;5035507;28;20106;-75
2021/12/22 11:05:48;;;;;;;24.27;15.13;;;-0.20;99.90;;;;;;5035610;28;20053;-76
2021/12/22 11:08:22;;;;;;;23.92;14.10;;;-0.20;99.90;;;;;;5035069;28;20049;-76
2021/12/22 11:10:49;;;;;;;24.45;14.93;;;-0.20;99.90;;;;;;5035387;28;20075;-77
2021/12/22 11:13:20;;;;;;;27.67;14.85;;;-0.20;99.90;;;;;;5034979;28;20482;-75
2021/12/22 11:15:47;;;;;;;26.70;15.77;;;-0.20;99.90;;;;;;5035095;28;20045;-76
2021/12/22 11:18:29;;;;;;;22.70;15.93;;;-0.20;99.90;;;;;;5034720;28;20049;-76
2021/12/22 11:21:11;;;;;;;22.40;14.48;;;-0.20;99.90;;;;;;5017644;28;20452;-76
2021/12/22 11:23:37;;;;;;;25.52;15.15;;;-0.30;99.90;;;;;;5035121;28;20079;-77
2021/12/22 11:26:04;;;;;;;26.60;15.02;;;-0.20;99.90;;;;;;5034696;28;20531;-78
2021/12/22 11:28:30;;;;;;;22.50;14.20;;;-0.30;99.90;;;;;;5035375;28;20087;-75
2021/12/22 11:30:57;;;;;;;25.27;14.82;;;-0.30;99.90;;;;;;5016821;28;20088;-73
2021/12/22 11:33:25;;;;;;;23.08;14.30;;;-0.30;99.90;;;;;;5034657;28;20061;-77
2021/12/22 11:35:55;;;;;;;24.42;14.77;;;-0.30;99.90;;;;;;5034789;28;20048;-76
2021/12/22 11:38:21;;;;;;;23.27;14.77;;;-0.30;99.90;;;;;;5034397;28;20045;-80
2021/12/22 11:40:56;;;;;;;20.85;13.75;;;-0.30;99.90;;;;;;5034702;28;20089;-79
2021/12/22 11:43:24;;;;;;;26.27;14.95;;;-0.20;99.90;;;;;;5034474;28;20052;-77
2021/12/22 11:45:51;;;;;;;22.83;15.43;;;-0.20;99.90;;;;;;5034844;28;20103;-74
2021/12/22 11:48:17;;;;;;;28.20;15.10;;;-0.20;99.90;;;;;;5034338;28;20053;-74
2021/12/22 11:50:48;;;;;;;24.17;14.15;;;;;;;;;;5001107;28;20050;-76
2021/12/22 11:53:14;;;;;;;25.20;14.75;;;-0.10;99.90;;;;;;5033895;28;20068;-76
2021/12/22 11:55:51;;;;;;;25.17;15.27;;;-0.10;99.90;;;;;;5034485;28;20045;-78
2021/12/22 11:58:19;;;;;;;24.17;14.60;;;;;;;;;;5034148;28;20355;-77
2021/12/22 12:00:53;;;;;;;24.75;14.77;;;0.00;99.90;;;;;;5034124;28;20494;-84
2021/12/22 12:03:30;;;;;;;22.40;13.80;;;0.00;99.90;;;;;;5034153;28;20056;-78
2021/12/22 12:06:07;;;;;;;25.20;15.35;;;0.00;99.90;;;;;;5034408;28;20053;-77
2021/12/22 12:08:45;;;;;;;24.15;14.18;;;0.00;99.90;;;;;;5000675;28;20080;-76
2021/12/22 12:11:19;;;;;;;24.63;14.30;;;0.00;99.90;;;;;;5034281;28;20063;-78
2021/12/22 12:14:00;;;;;;;23.00;14.43;;;0.10;99.90;;;;;;5034154;28;20049;-77
2021/12/22 12:22:19;;;;;;;23.02;14.15;;;;;;;;;;5010596;28;20054;-76
2021/12/22 12:24:48;;;;;;;19.60;13.30;;;;;;;;;;5034286;28;20401;-81
2021/12/22 12:27:33;;;;;;;22.35;13.82;;;;;;;;;;5033612;28;20053;-77
2021/12/22 12:30:06;;;;;;;24.35;14.63;;;;;;;;;;5016725;28;20061;-79
2021/12/22 12:32:41;;;;;;;25.42;14.48;;;;;;;;;;5033168;28;20057;-79
2021/12/22 12:35:31;;;;;;;22.75;13.35;;;;;;;;;;5034009;28;20059;-79
2021/12/22 12:37:58;;;;;;;23.83;14.38;;;;;;;;;;5033977;28;20057;-81
2021/12/22 12:40:43;;;;;;;23.55;13.38;;;;;;;;;;5033015;28;20524;-80
2021/12/22 12:43:10;;;;;;;22.27;14.63;;;;;;;;;;5033582;28;20057;-75
2021/12/22 12:45:46;;;;;;;27.05;13.48;;;;;;;;;;5006590;28;20128;-79
2021/12/22 12:48:30;;;;;;;23.42;14.75;;;;;;;;;;5026861;28;20049;-82
2021/12/22 12:51:15;;;;;;;24.08;14.23;;;;;;;;;;5027253;28;20401;-82
2021/12/22 12:53:42;;;;;;;21.52;13.32;;;;;;;;;;5029744;28;20448;-81
2021/12/22 12:56:09;;;;;;;22.92;13.68;;;;;;;;;;5030353;28;20076;-82
2021/12/22 12:58:51;;;;;;;22.05;13.68;;;;;;;;;;5030599;28;20038;-77
2021/12/22 13:01:17;;;;;;;22.30;13.43;;;;;;;;;;5029736;28;20064;-77
2021/12/22 13:03:47;;;;;;;25.23;13.75;;;;;;;;;;5028065;28;20052;-76
2021/12/22 13:06:13;;;;;;;21.10;14.07;;;;;;;;;;5029835;28;20049;-76
2021/12/22 13:08:39;;;;;;;21.58;13.18;;;;;;;;;;5013067;28;20037;-77
2021/12/22 13:11:13;;;;;;;26.10;14.57;;;;;;;;;;5030156;28;20088;-76
2021/12/22 13:16:24;;;;;;;21.25;13.73;;;;;;;;;;5029855;28;20490;-76
2021/12/22 13:18:50;;;;;;;23.05;14.85;;;;;;;;;;5030092;28;20096;-75
2021/12/22 13:21:16;;;;;;;24.27;14.68;;;;;;;;;;5031219;28;20454;-76
2021/12/22 13:23:42;;;;;;;23.65;14.48;;;;;;;;;;5015410;28;20041;-76